Time;durP1;ratioP1;P1;durP2;ratioP2;P2;SDS_P1;SDS_P2;PMS_P1;PMS_P2;Temp;Humidity;BMP_temperature;BMP_pressure;BME280_temperature;BME280_humidity;BME280_pressure;Samples;Min_cycle;Max_cycle;Signal;HPM_P1;HPM_P2
2021/05/05 00:01:32;;;;;;;9.63;4.22;;;6.20;99.90;;;;;;4143521;28;20034;-83
2021/05/05 00:03:33;;;;;;;8.57;2.67;;;6.20;99.90;;;;;;4148118;28;20025;-83
2021/05/05 00:05:34;;;;;;;9.40;3.15;;;6.10;99.90;;;;;;4145727;28;20147;-85
2021/05/05 00:07:35;;;;;;;10.25;3.40;;;6.10;99.90;;;;;;4137635;28;20034;-83
2021/05/05 00:09:36;;;;;;;10.15;2.88;;;6.10;99.90;;;;;;4139920;28;20095;-83
2021/05/05 00:11:37;;;;;;;8.57;3.78;;;6.10;99.90;;;;;;4146257;28;20521;-83
2021/05/05 00:13:38;;;;;;;7.28;3.22;;;6.10;99.90;;;;;;4129582;28;20066;-83
2021/05/05 00:15:39;;;;;;;15.77;3.63;;;6.20;99.90;;;;;;4146275;28;20608;-83
2021/05/05 00:17:40;;;;;;;13.25;3.33;;;6.10;99.90;;;;;;4129462;28;20078;-83
2021/05/05 00:19:40;;;;;;;5.82;3.42;;;6.10;99.90;;;;;;4138834;28;20041;-82
2021/05/05 00:21:42;;;;;;;9.07;3.33;;;6.10;99.90;;;;;;4157531;28;20045;-82
2021/05/05 00:23:44;;;;;;;9.73;3.55;;;6.10;99.90;;;;;;4145525;28;20045;-83
2021/05/05 00:25:46;;;;;;;9.20;3.47;;;6.10;99.90;;;;;;4145499;28;20526;-83
2021/05/05 00:27:52;;;;;;;15.38;3.53;;;6.10;99.90;;;;;;4136381;28;20037;-83
2021/05/05 00:29:53;;;;;;;9.15;3.80;;;6.00;99.90;;;;;;4146869;28;20080;-83
2021/05/05 00:31:54;;;;;;;15.95;4.22;;;6.10;99.90;;;;;;4150466;28;20034;-83
2021/05/05 00:33:54;;;;;;;10.98;3.22;;;6.10;99.90;;;;;;4139733;28;20485;-83
2021/05/05 00:35:55;;;;;;;10.77;3.50;;;6.10;99.90;;;;;;4150247;28;20042;-83
2021/05/05 00:37:56;;;;;;;7.35;3.67;;;6.10;99.90;;;;;;4145730;28;20060;-83
2021/05/05 00:39:57;;;;;;;12.48;4.10;;;6.10;99.90;;;;;;4161377;28;20029;-82
2021/05/05 00:41:58;;;;;;;10.40;4.68;;;6.10;99.90;;;;;;4145853;28;20073;-80
2021/05/05 00:43:58;;;;;;;14.18;5.28;;;6.10;99.90;;;;;;4160454;28;20127;-81
2021/05/05 00:46:00;;;;;;;9.80;4.30;;;6.00;99.90;;;;;;4144454;28;20030;-82
2021/05/05 00:48:01;;;;;;;9.95;3.90;;;6.00;99.90;;;;;;4144627;28;20030;-83
2021/05/05 00:50:04;;;;;;;16.42;5.50;;;6.00;99.90;;;;;;4143453;28;20060;-81
2021/05/05 00:52:05;;;;;;;16.30;4.18;;;6.00;99.90;;;;;;4127978;28;20042;-82
2021/05/05 00:54:06;;;;;;;17.48;4.95;;;6.00;99.90;;;;;;4128316;28;20474;-82
2021/05/05 00:56:08;;;;;;;12.52;4.05;;;6.10;99.90;;;;;;4144226;28;20026;-82
2021/05/05 00:58:08;;;;;;;12.48;3.90;;;6.10;99.90;;;;;;4158160;28;20040;-82
2021/05/05 01:00:12;;;;;;;11.68;4.45;;;6.10;99.90;;;;;;4144499;28;20034;-82
2021/05/05 01:02:14;;;;;;;22.10;5.07;;;6.10;99.90;;;;;;4142700;28;20365;-82
2021/05/05 01:04:15;;;;;;;11.17;4.60;;;6.20;99.90;;;;;;4144382;28;20370;-83
2021/05/05 01:06:17;;;;;;;16.15;5.10;;;6.20;99.90;;;;;;4139954;28;20033;-80
2021/05/05 01:08:21;;;;;;;11.23;3.38;;;6.10;99.90;;;;;;4146167;28;20496;-80
2021/05/05 01:10:22;;;;;;;10.55;3.58;;;6.00;99.90;;;;;;4161232;28;20084;-80
2021/05/05 01:12:23;;;;;;;14.10;3.53;;;5.90;99.90;;;;;;4160813;28;20053;-80
2021/05/05 01:14:24;;;;;;;7.63;3.35;;;5.80;99.90;;;;;;4160887;28;20029;-80
2021/05/05 01:16:26;;;;;;;10.65;3.78;;;5.70;99.90;;;;;;4144509;28;20582;-79
2021/05/05 01:18:26;;;;;;;10.98;3.28;;;5.60;99.90;;;;;;4127792;28;20031;-80
2021/05/05 01:20:29;;;;;;;11.63;3.65;;;5.30;99.90;;;;;;4127557;28;20105;-80
2021/05/05 01:22:30;;;;;;;10.32;3.63;;;5.20;99.90;;;;;;4145759;28;20508;-78
2021/05/05 01:24:34;;;;;;;8.68;3.90;;;5.10;99.90;;;;;;4146610;28;20081;-82
2021/05/05 01:26:41;;;;;;;8.48;4.07;;;5.10;99.90;;;;;;4161968;28;20029;-79
2021/05/05 01:28:46;;;;;;;9.75;2.85;;;5.00;99.90;;;;;;4128329;28;20073;-81
2021/05/05 01:30:48;;;;;;;14.27;4.15;;;5.00;99.90;;;;;;4145647;28;20030;-81
2021/05/05 01:32:50;;;;;;;11.82;3.55;;;5.00;99.90;;;;;;4146949;28;20034;-82
2021/05/05 01:34:54;;;;;;;9.20;4.25;;;4.90;99.90;;;;;;4157803;28;20041;-81
2021/05/05 01:36:56;;;;;;;;;;;4.80;99.90;;;;;;4145765;28;20033;-81
2021/05/05 01:38:57;;;;;;;11.90;3.75;;;4.90;99.90;;;;;;4145602;28;19953;-80
2021/05/05 01:40:57;;;;;;;10.40;3.65;;;4.80;99.90;;;;;;4138212;28;20030;-79
2021/05/05 01:43:01;;;;;;;6.88;4.32;;;4.90;99.90;;;;;;4145180;28;20034;-78
2021/05/05 01:45:05;;;;;;;11.20;4.10;;;5.00;99.90;;;;;;4144534;28;20063;-79
2021/05/05 01:47:10;;;;;;;10.77;3.53;;;5.00;99.90;;;;;;4148159;28;20446;-79
2021/05/05 01:49:16;;;;;;;12.95;3.88;;;4.90;99.90;;;;;;4134828;28;20038;-80
2021/05/05 01:51:17;;;;;;;10.00;3.05;;;5.00;99.90;;;;;;4143340;28;20574;-79
2021/05/05 01:53:18;;;;;;;14.75;3.75;;;5.00;99.90;;;;;;4180777;28;20153;-80
2021/05/05 01:55:18;;;;;;;15.90;4.03;;;5.00;99.90;;;;;;4161632;28;20478;-78
2021/05/05 01:57:32;;;;;;;12.98;4.07;;;5.00;99.90;;;;;;4153296;28;20033;-80
2021/05/05 01:59:32;;;;;;;11.25;3.20;;;5.10;99.90;;;;;;4164806;28;20116;-80
2021/05/05 02:01:33;;;;;;;12.02;3.40;;;5.10;99.90;;;;;;4143671;28;20508;-82
2021/05/05 02:03:34;;;;;;;12.32;3.88;;;5.10;99.90;;;;;;4147603;28;20044;-79
2021/05/05 02:05:35;;;;;;;12.32;4.03;;;5.10;99.90;;;;;;4164604;28;20034;-79
2021/05/05 02:07:38;;;;;;;13.80;3.90;;;5.10;99.90;;;;;;4160525;28;20037;-80
2021/05/05 02:09:40;;;;;;;15.68;5.82;;;5.10;99.90;;;;;;4140130;28;20057;-80
2021/05/05 02:11:46;;;;;;;14.32;4.10;;;5.00;99.90;;;;;;4142906;28;20089;-83
2021/05/05 02:13:47;;;;;;;14.52;3.72;;;5.10;99.90;;;;;;4148075;28;20030;-80
2021/05/05 02:15:48;;;;;;;19.15;4.68;;;5.10;99.90;;;;;;4147588;28;20026;-80
2021/05/05 02:17:51;;;;;;;17.10;4.97;;;5.10;99.90;;;;;;4149119;28;20026;-80
2021/05/05 02:19:52;;;;;;;12.35;4.15;;;5.00;99.90;;;;;;4149065;28;20034;-80
2021/05/05 02:21:56;;;;;;;17.50;4.28;;;5.00;99.90;;;;;;4137471;28;20418;-79
2021/05/05 02:23:56;;;;;;;18.42;4.60;;;4.90;99.90;;;;;;4180248;28;20037;-79
2021/05/05 02:25:57;;;;;;;11.40;5.80;;;4.80;99.90;;;;;;4147937;28;20417;-79
2021/05/05 02:27:58;;;;;;;17.55;4.82;;;4.80;99.90;;;;;;4135983;28;20520;-80
2021/05/05 02:30:09;;;;;;;15.82;4.70;;;4.90;99.90;;;;;;4156439;28;20026;-80
2021/05/05 02:32:14;;;;;;;20.65;5.43;;;4.90;99.90;;;;;;4146519;28;20084;-83
2021/05/05 02:34:16;;;;;;;18.10;5.25;;;4.90;99.90;;;;;;4144182;28;20121;-81
2021/05/05 02:36:17;;;;;;;17.50;5.03;;;4.90;99.90;;;;;;4146122;28;20037;-81
2021/05/05 02:38:18;;;;;;;18.75;5.57;;;5.00;99.90;;;;;;4162012;28;20106;-80
2021/05/05 02:40:19;;;;;;;19.27;5.72;;;5.00;99.90;;;;;;4179044;28;20037;-80
2021/05/05 02:42:20;;;;;;;18.48;5.43;;;5.00;99.90;;;;;;4146693;28;20117;-80
2021/05/05 02:44:21;;;;;;;21.98;5.30;;;5.00;99.90;;;;;;4146879;28;20074;-81
2021/05/05 02:46:21;;;;;;;21.50;6.55;;;5.10;99.90;;;;;;4146721;28;20054;-80
2021/05/05 02:48:23;;;;;;;24.38;4.97;;;5.10;99.90;;;;;;4141843;28;20026;-79
2021/05/05 02:50:24;;;;;;;14.10;5.47;;;5.10;99.90;;;;;;4152366;28;20451;-80
2021/05/05 02:52:24;;;;;;;22.15;5.57;;;5.10;99.90;;;;;;4129967;28;20038;-79
2021/05/05 02:54:25;;;;;;;13.88;5.00;;;5.20;99.90;;;;;;4162295;28;20052;-79
2021/05/05 02:56:26;;;;;;;16.02;5.68;;;5.20;99.90;;;;;;4145834;28;20037;-80
2021/05/05 02:58:28;;;;;;;20.67;6.03;;;5.20;99.90;;;;;;4178642;28;20033;-79
2021/05/05 03:00:28;;;;;;;16.25;5.07;;;5.10;99.90;;;;;;4146088;28;20025;-79
2021/05/05 03:02:31;;;;;;;15.15;5.15;;;5.20;99.90;;;;;;4150918;28;20045;-80
2021/05/05 03:04:33;;;;;;;15.45;5.30;;;5.10;99.90;;;;;;4146269;28;20038;-81
2021/05/05 03:06:36;;;;;;;16.58;5.60;;;5.10;99.90;;;;;;4143479;28;20092;-80
2021/05/05 03:08:37;;;;;;;16.48;5.80;;;5.10;99.90;;;;;;4129916;28;20058;-79
2021/05/05 03:10:37;;;;;;;14.05;5.43;;;5.00;99.90;;;;;;4145710;28;20062;-81
2021/05/05 03:12:39;;;;;;;19.70;6.70;;;4.90;99.90;;;;;;4146250;28;20121;-80
2021/05/05 03:14:41;;;;;;;14.52;6.60;;;4.90;99.90;;;;;;4146093;28;20046;-79
2021/05/05 03:16:42;;;;;;;20.13;6.60;;;4.80;99.90;;;;;;4145898;28;20042;-80
2021/05/05 03:18:43;;;;;;;22.38;7.03;;;4.80;99.90;;;;;;4130632;28;20115;-83
2021/05/05 03:20:44;;;;;;;16.67;7.60;;;4.80;99.90;;;;;;4145620;28;20058;-81
2021/05/05 03:22:44;;;;;;;23.90;7.70;;;4.80;99.90;;;;;;4130488;28;20038;-81
2021/05/05 03:24:45;;;;;;;20.30;8.00;;;4.70;99.90;;;;;;4145796;28;20112;-81
2021/05/05 03:26:46;;;;;;;25.27;7.35;;;4.80;99.90;;;;;;4146410;28;20045;-80
2021/05/05 03:28:47;;;;;;;16.17;7.18;;;4.80;99.90;;;;;;4146250;28;20116;-82
2021/05/05 03:30:49;;;;;;;25.58;8.45;;;4.80;99.90;;;;;;4146781;28;20049;-81
2021/05/05 03:32:55;;;;;;;26.98;7.93;;;4.80;99.90;;;;;;4140794;28;20109;-82
2021/05/05 03:34:56;;;;;;;19.77;7.28;;;4.80;99.90;;;;;;4146743;28;20065;-81
2021/05/05 03:36:59;;;;;;;15.45;6.20;;;4.70;99.90;;;;;;4179120;28;20080;-81
2021/05/05 03:39:01;;;;;;;17.23;6.40;;;4.60;99.90;;;;;;4146405;28;20066;-80
2021/05/05 03:41:02;;;;;;;22.42;6.95;;;4.70;99.90;;;;;;4146213;28;20030;-79
2021/05/05 03:43:03;;;;;;;20.20;5.55;;;4.70;99.90;;;;;;4147435;28;20080;-80
2021/05/05 03:45:08;;;;;;;13.52;5.80;;;4.70;99.90;;;;;;4146051;28;20041;-81
2021/05/05 03:47:09;;;;;;;15.88;5.65;;;4.60;99.90;;;;;;4146506;28;20108;-80
2021/05/05 03:49:10;;;;;;;17.25;6.35;;;4.60;99.90;;;;;;4146383;28;20429;-80
2021/05/05 03:51:11;;;;;;;19.30;6.25;;;4.60;99.90;;;;;;4146662;28;20037;-81
2021/05/05 03:53:12;;;;;;;22.63;6.93;;;4.60;99.90;;;;;;4147497;28;20034;-79
2021/05/05 03:55:15;;;;;;;19.13;6.28;;;4.70;99.90;;;;;;4146315;28;20029;-81
2021/05/05 03:57:16;;;;;;;23.00;5.65;;;4.80;99.90;;;;;;4146830;28;20030;-82
2021/05/05 03:59:17;;;;;;;17.85;5.60;;;4.80;99.90;;;;;;4146406;28;20374;-81
2021/05/05 04:01:18;;;;;;;17.08;5.03;;;4.90;99.90;;;;;;4162496;28;20078;-83
2021/05/05 04:03:19;;;;;;;13.10;4.85;;;4.90;99.90;;;;;;4145975;28;20121;-79
2021/05/05 04:05:21;;;;;;;14.30;5.50;;;4.90;99.90;;;;;;4129958;28;20129;-83
2021/05/05 04:07:22;;;;;;;15.20;4.45;;;4.90;99.90;;;;;;4145802;28;20041;-81
2021/05/05 04:09:24;;;;;;;18.15;5.32;;;4.80;99.90;;;;;;4178035;28;20459;-83
2021/05/05 04:11:26;;;;;;;12.90;5.37;;;4.70;99.90;;;;;;4146340;28;20081;-82
2021/05/05 04:13:27;;;;;;;14.18;4.70;;;4.60;99.90;;;;;;4145752;28;20092;-81
2021/05/05 04:15:28;;;;;;;12.57;5.10;;;4.60;99.90;;;;;;4159775;28;20034;-79
2021/05/05 04:17:29;;;;;;;14.68;4.55;;;4.70;99.90;;;;;;4151157;28;20496;-81
2021/05/05 04:19:30;;;;;;;14.85;5.15;;;4.60;99.90;;;;;;4136671;28;20030;-81
2021/05/05 04:21:31;;;;;;;14.00;6.30;;;4.60;99.90;;;;;;4145844;28;20032;-83
2021/05/05 04:23:35;;;;;;;19.15;5.90;;;4.60;99.90;;;;;;4146293;28;20049;-82
2021/05/05 04:25:36;;;;;;;12.80;4.55;;;4.70;99.90;;;;;;4146151;28;20034;-81
2021/05/05 04:27:38;;;;;;;16.80;6.00;;;4.70;99.90;;;;;;4161794;28;20037;-81
2021/05/05 04:29:39;;;;;;;15.32;6.25;;;4.60;99.90;;;;;;4146012;28;20034;-82
2021/05/05 04:31:40;;;;;;;17.52;5.55;;;4.70;99.90;;;;;;4146312;28;20026;-83
2021/05/05 04:33:47;;;;;;;24.13;6.93;;;4.70;99.90;;;;;;4162140;28;20059;-84
2021/05/05 04:35:48;;;;;;;17.20;5.20;;;4.70;99.90;;;;;;4146088;28;20125;-81
2021/05/05 04:37:49;;;;;;;15.57;7.10;;;4.70;99.90;;;;;;4135631;28;20026;-81
2021/05/05 04:39:50;;;;;;;18.35;6.18;;;4.80;99.90;;;;;;4147068;28;20165;-83
2021/05/05 04:41:52;;;;;;;18.15;5.25;;;4.90;99.90;;;;;;4145373;28;20038;-83
2021/05/05 04:43:52;;;;;;;16.98;6.00;;;5.00;99.90;;;;;;4145689;28;20038;-82
2021/05/05 04:45:53;;;;;;;23.33;9.27;;;5.10;99.90;;;;;;4146569;28;20452;-81
2021/05/05 04:47:54;;;;;;;15.90;6.07;;;5.10;99.90;;;;;;4132952;28;20370;-83
2021/05/05 04:49:55;;;;;;;18.08;6.32;;;5.10;99.90;;;;;;4145580;28;20476;-84
2021/05/05 04:51:56;;;;;;;20.58;7.00;;;5.10;99.90;;;;;;4145684;28;20150;-82
2021/05/05 04:53:57;;;;;;;16.27;6.60;;;5.20;99.90;;;;;;4145840;28;20466;-83
2021/05/05 04:56:00;;;;;;;16.95;6.85;;;5.20;99.90;;;;;;4162190;28;20512;-81
2021/05/05 04:58:00;;;;;;;11.20;4.95;;;5.20;99.90;;;;;;4147177;28;20033;-81
2021/05/05 05:00:06;;;;;;;17.08;6.50;;;5.20;99.90;;;;;;4145398;28;20045;-79
2021/05/05 05:02:08;;;;;;;12.70;6.55;;;5.20;99.90;;;;;;4145970;28;20141;-79
2021/05/05 05:04:09;;;;;;;17.98;7.85;;;5.10;99.90;;;;;;4153474;28;20022;-80
2021/05/05 05:06:10;;;;;;;18.88;8.25;;;5.10;99.90;;;;;;4144675;28;20040;-80
2021/05/05 05:08:10;;;;;;;14.82;5.85;;;5.10;99.90;;;;;;4144550;28;20042;-82
2021/05/05 05:10:16;;;;;;;9.52;4.68;;;5.10;99.90;;;;;;4144602;28;20177;-84
2021/05/05 05:12:17;;;;;;;17.42;6.10;;;5.10;99.90;;;;;;4148903;28;20022;-80
2021/05/05 05:14:25;;;;;;;13.10;5.70;;;5.10;99.90;;;;;;4145626;28;20096;-82
2021/05/05 05:16:26;;;;;;;17.63;5.72;;;5.10;99.90;;;;;;4145463;28;20029;-80
2021/05/05 05:18:27;;;;;;;11.35;4.88;;;5.10;99.90;;;;;;4146665;28;20026;-83
2021/05/05 05:20:29;;;;;;;12.85;5.82;;;5.20;99.90;;;;;;4146908;28;20030;-84
2021/05/05 05:22:30;;;;;;;8.93;4.78;;;5.10;99.90;;;;;;4132793;28;20057;-81
2021/05/05 05:24:31;;;;;;;19.90;6.00;;;5.10;99.90;;;;;;4165059;28;20045;-84
2021/05/05 05:26:31;;;;;;;13.35;5.57;;;5.00;99.90;;;;;;4140939;28;20494;-82
2021/05/05 05:28:32;;;;;;;12.52;5.88;;;5.00;99.90;;;;;;4151933;28;20037;-82
2021/05/05 05:30:33;;;;;;;11.13;5.80;;;4.90;99.90;;;;;;4149739;28;20033;-81
2021/05/05 05:32:34;;;;;;;17.23;5.63;;;5.00;99.90;;;;;;4149934;28;20401;-81
2021/05/05 05:34:36;;;;;;;14.13;5.65;;;5.00;99.90;;;;;;4151812;28;20460;-80
2021/05/05 05:36:40;;;;;;;14.20;4.65;;;5.00;99.90;;;;;;4148893;28;20105;-83
2021/05/05 05:38:42;;;;;;;;;;;5.00;99.90;;;;;;4150165;28;20026;-82
2021/05/05 05:40:42;;;;;;;14.40;5.53;;;5.00;99.90;;;;;;4151075;28;19959;-82
2021/05/05 05:42:45;;;;;;;10.60;4.30;;;5.00;99.90;;;;;;4149651;28;20033;-82
2021/05/05 05:44:45;;;;;;;7.95;4.22;;;5.10;99.90;;;;;;4149759;28;20164;-83
2021/05/05 05:46:47;;;;;;;6.78;3.25;;;5.30;99.90;;;;;;4141584;28;20030;-82
2021/05/05 05:48:48;;;;;;;9.60;4.47;;;5.30;99.90;;;;;;4166682;28;20129;-83
2021/05/05 05:50:50;;;;;;;13.98;5.28;;;5.40;99.90;;;;;;4149322;28;20493;-81
2021/05/05 05:52:51;;;;;;;8.98;4.70;;;5.50;99.90;;;;;;4148192;28;20038;-82
2021/05/05 05:54:53;;;;;;;6.28;3.88;;;5.70;99.90;;;;;;4148335;28;20096;-80
2021/05/05 05:56:54;;;;;;;8.45;5.43;;;5.70;99.90;;;;;;4148237;28;20119;-82
2021/05/05 05:58:56;;;;;;;14.05;4.30;;;5.60;99.90;;;;;;4164549;28;20033;-81
2021/05/05 06:00:57;;;;;;;13.00;4.63;;;5.60;99.90;;;;;;4132562;28;20121;-81
2021/05/05 06:02:59;;;;;;;7.28;4.47;;;5.50;99.90;;;;;;4181119;28;20067;-82
2021/05/05 06:05:00;;;;;;;10.38;4.75;;;5.50;99.90;;;;;;4149055;28;20100;-82
2021/05/05 06:07:00;;;;;;;8.52;3.17;;;5.50;99.90;;;;;;4147895;28;20041;-83
2021/05/05 06:09:02;;;;;;;14.13;4.97;;;5.50;99.90;;;;;;4160113;28;20540;-80
2021/05/05 06:11:06;;;;;;;8.90;3.95;;;5.40;99.90;;;;;;4139924;28;20100;-86
2021/05/05 06:13:06;;;;;;;8.75;4.13;;;5.60;99.90;;;;;;4148108;28;20053;-83
2021/05/05 06:15:10;;;;;;;11.95;4.03;;;5.70;99.90;;;;;;4164651;28;20431;-79
2021/05/05 06:17:11;;;;;;;14.60;3.90;;;5.70;99.90;;;;;;4149491;28;20405;-84
2021/05/05 06:19:12;;;;;;;13.05;4.05;;;5.70;99.90;;;;;;4148662;28;20049;-84
2021/05/05 06:21:13;;;;;;;11.00;4.53;;;5.70;99.90;;;;;;4138932;28;20478;-80
2021/05/05 06:23:14;;;;;;;12.43;4.53;;;5.80;99.90;;;;;;4163115;28;20049;-81
2021/05/05 06:25:15;;;;;;;11.60;3.88;;;5.90;99.90;;;;;;4130223;28;20049;-82
2021/05/05 06:27:16;;;;;;;16.42;4.22;;;6.00;99.90;;;;;;4146849;28;20096;-83
2021/05/05 06:29:18;;;;;;;8.50;3.85;;;6.30;99.90;;;;;;4146811;28;20033;-84
2021/05/05 06:31:19;;;;;;;8.40;3.75;;;6.40;99.90;;;;;;4146952;28;20042;-83
2021/05/05 06:33:20;;;;;;;13.18;4.32;;;6.50;99.90;;;;;;4146759;28;20119;-82
2021/05/05 06:35:21;;;;;;;9.45;4.35;;;6.60;99.90;;;;;;4163498;28;20042;-81
2021/05/05 06:37:23;;;;;;;13.45;4.45;;;6.60;99.90;;;;;;4147520;28;20100;-81
2021/05/05 06:39:24;;;;;;;10.10;3.70;;;6.60;99.90;;;;;;4146887;28;20034;-81
2021/05/05 06:41:24;;;;;;;11.32;4.05;;;6.60;99.90;;;;;;4147377;28;20038;-80
2021/05/05 06:43:25;;;;;;;13.27;3.78;;;6.50;99.90;;;;;;4147437;28;20050;-83
2021/05/05 06:45:28;;;;;;;15.90;4.55;;;6.50;99.90;;;;;;4147374;28;20524;-83
2021/05/05 06:47:31;;;;;;;5.85;3.63;;;6.50;99.90;;;;;;4147237;28;20470;-83
2021/05/05 06:49:34;;;;;;;12.23;4.25;;;6.50;99.90;;;;;;4147825;28;20041;-84
2021/05/05 06:51:36;;;;;;;13.00;4.32;;;6.50;99.90;;;;;;4147410;28;20537;-83
2021/05/05 06:53:37;;;;;;;12.00;4.43;;;6.60;99.90;;;;;;4147162;28;20100;-81
2021/05/05 06:55:38;;;;;;;12.15;4.32;;;6.60;99.90;;;;;;4147263;28;20428;-83
2021/05/05 06:57:39;;;;;;;8.68;4.07;;;6.60;99.90;;;;;;4147603;28;20034;-81
2021/05/05 06:59:40;;;;;;;9.52;3.80;;;6.60;99.90;;;;;;4146921;28;20099;-81
2021/05/05 07:01:41;;;;;;;11.45;3.80;;;6.60;99.90;;;;;;4147144;28;20125;-82
2021/05/05 07:03:42;;;;;;;10.68;3.63;;;6.70;99.90;;;;;;4147941;28;20042;-80
2021/05/05 07:05:44;;;;;;;7.20;3.83;;;6.70;99.90;;;;;;4157066;28;20045;-83
2021/05/05 07:07:45;;;;;;;10.18;3.25;;;6.80;99.90;;;;;;4139440;28;20038;-83
2021/05/05 07:09:48;;;;;;;11.77;3.75;;;7.00;99.90;;;;;;4143340;28;20119;-83
2021/05/05 07:11:50;;;;;;;5.88;3.00;;;7.00;99.90;;;;;;4155845;28;20034;-82
2021/05/05 07:13:51;;;;;;;7.05;3.03;;;7.10;99.90;;;;;;4147136;28;20506;-84
2021/05/05 07:15:51;;;;;;;8.30;2.97;;;7.20;99.90;;;;;;4144364;28;20137;-83
2021/05/05 07:17:53;;;;;;;11.88;3.72;;;7.20;99.90;;;;;;4174928;28;20037;-85
2021/05/05 07:19:54;;;;;;;11.85;4.20;;;7.20;99.90;;;;;;4144903;28;20425;-83
2021/05/05 07:21:56;;;;;;;11.52;4.10;;;7.30;99.90;;;;;;4145222;28;20042;-83
2021/05/05 07:23:58;;;;;;;15.00;5.55;;;7.30;99.90;;;;;;4139830;28;20457;-83
2021/05/05 07:25:59;;;;;;;9.88;3.83;;;7.40;99.90;;;;;;4145181;28;20037;-82
2021/05/05 07:28:00;;;;;;;13.43;3.50;;;7.60;99.90;;;;;;4142856;28;20033;-80
2021/05/05 07:30:01;;;;;;;10.85;4.25;;;7.70;99.90;;;;;;4127938;28;20054;-79
2021/05/05 07:32:01;;;;;;;12.52;3.97;;;7.80;99.90;;;;;;4144482;28;20122;-85
2021/05/05 07:34:03;;;;;;;11.35;4.45;;;8.10;99.90;;;;;;4144596;28;20038;-84
2021/05/05 07:36:09;;;;;;;15.32;3.42;;;8.30;99.90;;;;;;4140959;28;20038;-84
2021/05/05 07:38:37;;;;;;;11.20;4.22;;;8.50;99.90;;;;;;4159439;28;20022;-85
2021/05/05 07:45:30;;;;;;;7.10;3.28;;;8.50;99.90;;;;;;4154088;28;20574;-83
2021/05/05 07:47:37;;;;;;;14.35;3.67;;;8.40;99.90;;;;;;4144069;28;20128;-83
2021/05/05 07:49:46;;;;;;;7.90;3.13;;;8.10;99.90;;;;;;4160226;28;20029;-81
2021/05/05 07:51:47;;;;;;;12.13;4.05;;;7.50;99.90;;;;;;4162687;28;20094;-82
2021/05/05 07:53:49;;;;;;;10.63;3.83;;;7.00;99.90;;;;;;4146071;28;20041;-81
2021/05/05 07:55:51;;;;;;;10.38;4.15;;;6.70;99.90;;;;;;4146251;28;20585;-84
2021/05/05 07:57:52;;;;;;;12.70;3.42;;;6.40;99.90;;;;;;4174348;28;20423;-83
2021/05/05 07:59:53;;;;;;;10.68;4.68;;;6.20;99.90;;;;;;4146091;28;20034;-83
2021/05/05 08:01:56;;;;;;;15.93;3.35;;;6.10;99.90;;;;;;4146191;28;20170;-82
2021/05/05 08:03:57;;;;;;;16.48;3.78;;;6.20;99.90;;;;;;4167601;28;20045;-83
2021/05/05 08:05:58;;;;;;;13.60;4.93;;;6.40;99.90;;;;;;4170418;28;20033;-84
2021/05/05 08:07:59;;;;;;;14.88;4.20;;;6.80;99.90;;;;;;4140459;28;20488;-85
2021/05/05 08:10:02;;;;;;;7.13;3.15;;;7.20;99.90;;;;;;4147205;28;20041;-84
2021/05/05 08:12:03;;;;;;;11.70;3.57;;;7.50;99.90;;;;;;4144087;28;20036;-85
2021/05/05 08:14:04;;;;;;;13.77;3.92;;;7.70;99.90;;;;;;4146290;28;20811;-85
2021/05/05 08:16:09;;;;;;;12.18;3.40;;;7.80;99.90;;;;;;4141993;28;20136;-84
2021/05/05 08:18:10;;;;;;;9.00;2.92;;;7.70;99.90;;;;;;4127713;28;20038;-84
2021/05/05 08:20:14;;;;;;;12.10;3.70;;;7.60;99.90;;;;;;4162343;28;20473;-87
2021/05/05 08:22:14;;;;;;;6.55;4.05;;;7.30;99.90;;;;;;4143844;28;20030;-83
2021/05/05 08:24:15;;;;;;;9.27;2.97;;;7.30;99.90;;;;;;4138814;28;20076;-86
2021/05/05 08:26:19;;;;;;;8.80;3.63;;;7.30;99.90;;;;;;4129230;28;20058;-84
2021/05/05 08:28:21;;;;;;;6.78;2.72;;;7.30;99.90;;;;;;4145676;28;20049;-84
2021/05/05 08:30:23;;;;;;;7.63;4.00;;;7.30;99.90;;;;;;4161991;28;20041;-84
2021/05/05 08:32:24;;;;;;;8.60;3.37;;;7.60;99.90;;;;;;4145416;28;20030;-84
2021/05/05 08:34:26;;;;;;;13.38;3.83;;;7.70;99.90;;;;;;4150628;28;20101;-85
2021/05/05 08:36:28;;;;;;;7.20;3.25;;;8.00;99.90;;;;;;4144150;28;20038;-84
2021/05/05 08:38:29;;;;;;;8.95;3.45;;;8.10;99.90;;;;;;4122540;28;20035;-82
2021/05/05 08:40:32;;;;;;;7.68;4.28;;;8.20;99.90;;;;;;4160481;28;20071;-85
2021/05/05 08:42:35;;;;;;;5.80;2.63;;;8.30;99.90;;;;;;4154969;28;20378;-83
2021/05/05 08:44:36;;;;;;;5.25;2.63;;;8.50;99.90;;;;;;4145215;28;20038;-88
2021/05/05 08:46:39;;;;;;;10.10;3.20;;;8.80;99.90;;;;;;4145108;28;20493;-87
2021/05/05 08:48:41;;;;;;;5.47;3.10;;;8.50;99.90;;;;;;4143103;28;20072;-87
2021/05/05 08:50:43;;;;;;;11.38;3.92;;;7.90;99.90;;;;;;4141232;28;20096;-84
2021/05/05 08:52:45;;;;;;;9.13;3.83;;;7.40;99.90;;;;;;4158394;28;20041;-81
2021/05/05 08:54:47;;;;;;;6.63;3.28;;;7.10;99.90;;;;;;4140375;28;20116;-82
2021/05/05 08:56:47;;;;;;;10.13;3.40;;;6.90;99.90;;;;;;4160085;28;20025;-81
2021/05/05 08:58:49;;;;;;;8.57;3.05;;;6.90;99.90;;;;;;4138479;28;20057;-82
2021/05/05 09:00:51;;;;;;;17.27;4.93;;;7.10;99.90;;;;;;4148829;28;20037;-82
2021/05/05 09:02:54;;;;;;;11.45;3.85;;;7.30;99.90;;;;;;4139136;28;20088;-83
2021/05/05 09:05:03;;;;;;;17.95;5.13;;;7.60;99.90;;;;;;4142851;28;20049;-83
2021/05/05 09:07:04;;;;;;;13.57;4.15;;;8.10;99.90;;;;;;4122885;28;20512;-81
2021/05/05 09:09:05;;;;;;;13.57;4.18;;;8.20;99.90;;;;;;4154946;28;20109;-81
2021/05/05 09:11:11;;;;;;;12.40;3.53;;;8.20;99.90;;;;;;4156454;28;20096;-80
2021/05/05 09:13:12;;;;;;;15.57;3.97;;;8.20;99.90;;;;;;4145442;28;20030;-83
2021/05/05 09:15:18;;;;;;;7.68;3.85;;;8.10;99.90;;;;;;4148351;28;20117;-83
2021/05/05 09:17:32;;;;;;;11.73;6.30;;;7.90;99.90;;;;;;4147074;28;20504;-81
2021/05/05 09:19:34;;;;;;;12.55;5.45;;;7.80;99.90;;;;;;4145363;28;20030;-80
2021/05/05 09:21:49;;;;;;;14.30;4.05;;;7.70;99.90;;;;;;4131466;28;20033;-84
2021/05/05 09:23:50;;;;;;;11.40;3.53;;;7.70;99.90;;;;;;4148199;28;20546;-82
2021/05/05 09:25:52;;;;;;;8.02;3.10;;;7.80;99.90;;;;;;4149683;28;20073;-84
2021/05/05 09:28:22;;;;;;;8.25;3.40;;;7.90;99.90;;;;;;4159341;28;21312;-82
2021/05/05 09:30:24;;;;;;;10.30;4.10;;;8.20;99.90;;;;;;4145332;28;20100;-82
2021/05/05 09:32:25;;;;;;;6.20;3.05;;;8.80;99.90;;;;;;4147822;28;20046;-83
2021/05/05 09:34:29;;;;;;;10.38;3.47;;;9.10;99.90;;;;;;4148184;28;20134;-85
2021/05/05 09:36:30;;;;;;;13.32;4.05;;;9.30;99.90;;;;;;4159515;28;20026;-82
2021/05/05 09:38:49;;;;;;;9.65;3.25;;;9.30;99.90;;;;;;4157745;28;20029;-81
2021/05/05 09:40:58;;;;;;;11.98;3.40;;;8.90;99.90;;;;;;4136714;28;20039;-81
2021/05/05 09:43:15;;;;;;;4.97;2.83;;;8.70;99.90;;;;;;4149592;28;20503;-82
2021/05/05 09:45:16;;;;;;;6.13;3.00;;;8.50;99.90;;;;;;4125293;28;20121;-82
2021/05/05 09:47:17;;;;;;;11.40;3.10;;;8.50;99.90;;;;;;4176869;28;20025;-82
2021/05/05 09:49:32;;;;;;;15.95;3.35;;;8.50;99.90;;;;;;4147986;28;20192;-83
2021/05/05 09:51:46;;;;;;;7.20;3.15;;;8.60;99.90;;;;;;4148203;28;20510;-83
2021/05/05 09:53:54;;;;;;;11.55;3.70;;;8.90;99.90;;;;;;4138491;28;20030;-83
2021/05/05 09:55:57;;;;;;;9.63;3.90;;;9.30;99.90;;;;;;4127707;28;20416;-82
2021/05/05 09:58:42;;;;;;;4.43;3.33;;;9.50;99.90;;;;;;4156854;28;20065;-84
2021/05/05 10:00:43;;;;;;;9.70;3.05;;;9.80;99.90;;;;;;4122653;28;20164;-82
2021/05/05 10:02:56;;;;;;;3.90;2.95;;;10.30;99.90;;;;;;4143868;28;20134;-85
2021/05/05 10:05:11;;;;;;;6.15;3.13;;;10.60;99.90;;;;;;4161543;28;20152;-83
2021/05/05 10:07:11;;;;;;;5.47;2.50;;;10.50;99.90;;;;;;4151517;28;20093;-82
2021/05/05 10:09:13;;;;;;;12.10;5.18;;;9.70;99.90;;;;;;4141026;28;20022;-80
2021/05/05 10:11:14;;;;;;;10.02;3.53;;;8.70;99.90;;;;;;4147774;28;20019;-84
2021/05/05 10:13:18;;;;;;;10.63;4.35;;;8.00;99.90;;;;;;4154533;28;20037;-84
2021/05/05 10:15:20;;;;;;;9.85;3.75;;;7.60;99.90;;;;;;4147314;28;20072;-84
2021/05/05 10:17:21;;;;;;;11.02;3.55;;;7.90;99.90;;;;;;4147436;28;20033;-84
2021/05/05 10:19:26;;;;;;;12.73;4.35;;;8.30;99.90;;;;;;4147762;28;20042;-82
2021/05/05 10:21:27;;;;;;;14.52;4.00;;;8.90;99.90;;;;;;4147732;28;20037;-80
2021/05/05 10:23:28;;;;;;;9.57;3.42;;;9.40;99.90;;;;;;4135355;28;20141;-83
2021/05/05 10:25:31;;;;;;;15.98;4.82;;;9.80;99.90;;;;;;4147461;28;20061;-79
2021/05/05 10:27:32;;;;;;;10.95;3.85;;;9.90;99.90;;;;;;4131000;28;20022;-84
2021/05/05 10:29:35;;;;;;;6.90;3.00;;;10.00;99.90;;;;;;4147460;28;20053;-83
2021/05/05 10:31:40;;;;;;;13.90;5.13;;;10.20;99.90;;;;;;4147522;28;20496;-83
2021/05/05 10:33:44;;;;;;;7.88;3.35;;;10.60;99.90;;;;;;4160283;28;20041;-81
2021/05/05 10:35:48;;;;;;;11.38;3.80;;;10.80;99.90;;;;;;4162552;28;20393;-84
2021/05/05 10:38:00;;;;;;;14.63;6.07;;;10.90;99.90;;;;;;4162030;28;20036;-84
2021/05/05 10:40:17;;;;;;;9.98;4.18;;;10.50;99.90;;;;;;4141944;28;20052;-81
2021/05/05 10:42:21;;;;;;;20.30;4.20;;;10.10;99.90;;;;;;4145921;28;20509;-85
2021/05/05 10:44:37;;;;;;;9.30;4.20;;;9.90;99.90;;;;;;4147103;28;20084;-86
2021/05/05 10:46:39;;;;;;;9.27;3.58;;;10.20;99.90;;;;;;4142742;28;20030;-83